sensor_id;sensor_type;location;lat;lon;timestamp;P1;durP1;ratioP1;P2;durP2;ratioP2
73107;SDS011;61559;50.476;15.588;2023-08-06T00:01:41;0.50;;;0.40;;
73107;SDS011;61559;50.476;15.588;2023-08-06T00:04:12;0.60;;;0.20;;
73107;SDS011;61559;50.476;15.588;2023-08-06T00:06:43;0.30;;;0.30;;
73107;SDS011;61559;50.476;15.588;2023-08-06T00:09:15;0.40;;;0.30;;
73107;SDS011;61559;50.476;15.588;2023-08-06T00:11:46;0.40;;;0.30;;
73107;SDS011;61559;50.476;15.588;2023-08-06T00:14:17;0.30;;;0.20;;
73107;SDS011;61559;50.476;15.588;2023-08-06T00:16:48;0.30;;;0.30;;
73107;SDS011;61559;50.476;15.588;2023-08-06T00:19:19;2.00;;;0.40;;
73107;SDS011;61559;50.476;15.588;2023-08-06T00:21:51;0.70;;;0.20;;
73107;SDS011;61559;50.476;15.588;2023-08-06T00:24:22;0.60;;;0.30;;
73107;SDS011;61559;50.476;15.588;2023-08-06T00:26:53;0.30;;;0.30;;
73107;SDS011;61559;50.476;15.588;2023-08-06T00:29:24;1.20;;;0.30;;
73107;SDS011;61559;50.476;15.588;2023-08-06T00:31:55;0.40;;;0.40;;
73107;SDS011;61559;50.476;15.588;2023-08-06T00:34:26;1.00;;;0.40;;
73107;SDS011;61559;50.476;15.588;2023-08-06T00:36:57;0.50;;;0.40;;
73107;SDS011;61559;50.476;15.588;2023-08-06T00:39:28;0.90;;;0.30;;
73107;SDS011;61559;50.476;15.588;2023-08-06T00:41:59;0.30;;;0.30;;
73107;SDS011;61559;50.476;15.588;2023-08-06T00:44:30;0.70;;;0.40;;
73107;SDS011;61559;50.476;15.588;2023-08-06T00:47:01;0.60;;;0.40;;
73107;SDS011;61559;50.476;15.588;2023-08-06T00:49:33;0.30;;;0.20;;
73107;SDS011;61559;50.476;15.588;2023-08-06T00:52:05;1.00;;;0.50;;
73107;SDS011;61559;50.476;15.588;2023-08-06T00:54:38;0.40;;;0.20;;
73107;SDS011;61559;50.476;15.588;2023-08-06T00:57:10;1.50;;;0.50;;
73107;SDS011;61559;50.476;15.588;2023-08-06T00:59:42;1.10;;;0.40;;
73107;SDS011;61559;50.476;15.588;2023-08-06T01:02:13;0.40;;;0.40;;
73107;SDS011;61559;50.476;15.588;2023-08-06T01:04:45;0.60;;;0.20;;
73107;SDS011;61559;50.476;15.588;2023-08-06T01:07:19;0.40;;;0.30;;
73107;SDS011;61559;50.476;15.588;2023-08-06T01:10:00;0.80;;;0.30;;
73107;SDS011;61559;50.476;15.588;2023-08-06T01:12:59;1.00;;;0.30;;
73107;SDS011;61559;50.476;15.588;2023-08-06T01:15:40;0.70;;;0.30;;
73107;SDS011;61559;50.476;15.588;2023-08-06T01:18:15;4.00;;;0.40;;
73107;SDS011;61559;50.476;15.588;2023-08-06T01:20:47;0.20;;;0.20;;
73107;SDS011;61559;50.476;15.588;2023-08-06T01:23:19;0.50;;;0.30;;
73107;SDS011;61559;50.476;15.588;2023-08-06T01:25:52;0.30;;;0.30;;
73107;SDS011;61559;50.476;15.588;2023-08-06T01:28:33;0.30;;;0.20;;
73107;SDS011;61559;50.476;15.588;2023-08-06T01:31:14;0.30;;;0.20;;
73107;SDS011;61559;50.476;15.588;2023-08-06T01:33:48;0.80;;;0.40;;
73107;SDS011;61559;50.476;15.588;2023-08-06T01:36:21;1.70;;;0.30;;
73107;SDS011;61559;50.476;15.588;2023-08-06T01:38:53;1.20;;;0.30;;
73107;SDS011;61559;50.476;15.588;2023-08-06T01:41:25;0.30;;;0.20;;
73107;SDS011;61559;50.476;15.588;2023-08-06T01:43:56;1.50;;;0.30;;
73107;SDS011;61559;50.476;15.588;2023-08-06T01:46:27;0.20;;;0.20;;
73107;SDS011;61559;50.476;15.588;2023-08-06T01:48:58;0.50;;;0.30;;
73107;SDS011;61559;50.476;15.588;2023-08-06T01:51:29;0.70;;;0.30;;
73107;SDS011;61559;50.476;15.588;2023-08-06T01:54:00;1.50;;;0.40;;
73107;SDS011;61559;50.476;15.588;2023-08-06T01:56:32;0.60;;;0.30;;
73107;SDS011;61559;50.476;15.588;2023-08-06T01:59:03;1.30;;;0.20;;
73107;SDS011;61559;50.476;15.588;2023-08-06T02:01:34;0.30;;;0.30;;
73107;SDS011;61559;50.476;15.588;2023-08-06T02:04:05;1.00;;;0.30;;
73107;SDS011;61559;50.476;15.588;2023-08-06T02:06:37;0.50;;;0.30;;
73107;SDS011;61559;50.476;15.588;2023-08-06T02:09:07;0.40;;;0.30;;
73107;SDS011;61559;50.476;15.588;2023-08-06T02:11:39;0.60;;;0.20;;
73107;SDS011;61559;50.476;15.588;2023-08-06T02:14:11;0.20;;;0.20;;
73107;SDS011;61559;50.476;15.588;2023-08-06T02:16:42;1.30;;;0.30;;
73107;SDS011;61559;50.476;15.588;2023-08-06T02:19:13;0.30;;;0.30;;
73107;SDS011;61559;50.476;15.588;2023-08-06T02:21:44;0.60;;;0.30;;
73107;SDS011;61559;50.476;15.588;2023-08-06T02:24:16;0.60;;;0.30;;
73107;SDS011;61559;50.476;15.588;2023-08-06T02:26:47;0.30;;;0.30;;
73107;SDS011;61559;50.476;15.588;2023-08-06T02:29:19;1.00;;;0.30;;
73107;SDS011;61559;50.476;15.588;2023-08-06T02:31:50;1.30;;;0.30;;
73107;SDS011;61559;50.476;15.588;2023-08-06T02:34:22;0.60;;;0.50;;
73107;SDS011;61559;50.476;15.588;2023-08-06T02:36:54;0.30;;;0.30;;
73107;SDS011;61559;50.476;15.588;2023-08-06T02:39:25;0.20;;;0.20;;
73107;SDS011;61559;50.476;15.588;2023-08-06T02:41:56;0.30;;;0.30;;
73107;SDS011;61559;50.476;15.588;2023-08-06T02:44:28;1.30;;;0.40;;
73107;SDS011;61559;50.476;15.588;2023-08-06T02:46:59;0.60;;;0.40;;
73107;SDS011;61559;50.476;15.588;2023-08-06T02:49:31;1.70;;;0.50;;
73107;SDS011;61559;50.476;15.588;2023-08-06T02:52:02;0.50;;;0.30;;
73107;SDS011;61559;50.476;15.588;2023-08-06T02:54:33;0.10;;;0.10;;
73107;SDS011;61559;50.476;15.588;2023-08-06T02:57:05;1.90;;;0.30;;
73107;SDS011;61559;50.476;15.588;2023-08-06T02:59:36;0.30;;;0.30;;
73107;SDS011;61559;50.476;15.588;2023-08-06T03:02:08;1.10;;;0.20;;
73107;SDS011;61559;50.476;15.588;2023-08-06T03:04:40;0.40;;;0.30;;
73107;SDS011;61559;50.476;15.588;2023-08-06T03:07:11;0.10;;;0.10;;
73107;SDS011;61559;50.476;15.588;2023-08-06T03:09:42;0.20;;;0.20;;
73107;SDS011;61559;50.476;15.588;2023-08-06T03:12:13;0.20;;;0.20;;
73107;SDS011;61559;50.476;15.588;2023-08-06T03:14:44;0.30;;;0.20;;
73107;SDS011;61559;50.476;15.588;2023-08-06T03:17:15;0.20;;;0.20;;
73107;SDS011;61559;50.476;15.588;2023-08-06T03:19:46;0.50;;;0.30;;
73107;SDS011;61559;50.476;15.588;2023-08-06T03:22:17;2.30;;;0.20;;
73107;SDS011;61559;50.476;15.588;2023-08-06T03:24:51;0.50;;;0.20;;
73107;SDS011;61559;50.476;15.588;2023-08-06T03:27:22;0.10;;;0.10;;
73107;SDS011;61559;50.476;15.588;2023-08-06T03:29:53;0.10;;;0.10;;
73107;SDS011;61559;50.476;15.588;2023-08-06T03:32:25;0.20;;;0.20;;
73107;SDS011;61559;50.476;15.588;2023-08-06T03:34:56;0.40;;;0.10;;
73107;SDS011;61559;50.476;15.588;2023-08-06T03:37:28;0.50;;;0.10;;
73107;SDS011;61559;50.476;15.588;2023-08-06T03:40:00;0.70;;;0.00;;
73107;SDS011;61559;50.476;15.588;2023-08-06T03:42:32;0.40;;;0.10;;
73107;SDS011;61559;50.476;15.588;2023-08-06T03:45:03;0.30;;;0.10;;
73107;SDS011;61559;50.476;15.588;2023-08-06T03:47:36;0.60;;;0.20;;
73107;SDS011;61559;50.476;15.588;2023-08-06T03:50:07;0.20;;;0.20;;
73107;SDS011;61559;50.476;15.588;2023-08-06T03:52:39;0.20;;;0.20;;
73107;SDS011;61559;50.476;15.588;2023-08-06T03:55:10;1.10;;;0.10;;
73107;SDS011;61559;50.476;15.588;2023-08-06T03:57:41;0.60;;;0.20;;
73107;SDS011;61559;50.476;15.588;2023-08-06T04:00:12;1.00;;;0.10;;
73107;SDS011;61559;50.476;15.588;2023-08-06T04:02:43;0.40;;;0.10;;
73107;SDS011;61559;50.476;15.588;2023-08-06T04:05:15;0.10;;;0.10;;
73107;SDS011;61559;50.476;15.588;2023-08-06T04:07:46;0.10;;;0.10;;
73107;SDS011;61559;50.476;15.588;2023-08-06T04:10:17;0.00;;;0.00;;
73107;SDS011;61559;50.476;15.588;2023-08-06T04:12:48;0.00;;;0.00;;
73107;SDS011;61559;50.476;15.588;2023-08-06T04:15:19;0.00;;;0.00;;
73107;SDS011;61559;50.476;15.588;2023-08-06T04:17:50;0.00;;;0.00;;
73107;SDS011;61559;50.476;15.588;2023-08-06T04:20:21;0.00;;;0.00;;
73107;SDS011;61559;50.476;15.588;2023-08-06T04:22:53;0.20;;;0.10;;
73107;SDS011;61559;50.476;15.588;2023-08-06T04:25:24;0.60;;;0.00;;
73107;SDS011;61559;50.476;15.588;2023-08-06T04:27:55;0.00;;;0.00;;
73107;SDS011;61559;50.476;15.588;2023-08-06T04:30:26;0.10;;;0.10;;
73107;SDS011;61559;50.476;15.588;2023-08-06T04:32:57;0.00;;;0.00;;
73107;SDS011;61559;50.476;15.588;2023-08-06T04:35:29;0.00;;;0.00;;
73107;SDS011;61559;50.476;15.588;2023-08-06T04:38:00;0.00;;;0.00;;
73107;SDS011;61559;50.476;15.588;2023-08-06T04:40:34;0.00;;;0.00;;
73107;SDS011;61559;50.476;15.588;2023-08-06T04:43:05;0.60;;;0.00;;
73107;SDS011;61559;50.476;15.588;2023-08-06T04:45:36;0.00;;;0.00;;
73107;SDS011;61559;50.476;15.588;2023-08-06T04:48:14;0.80;;;0.10;;
73107;SDS011;61559;50.476;15.588;2023-08-06T04:50:45;0.00;;;0.00;;
73107;SDS011;61559;50.476;15.588;2023-08-06T04:53:18;0.20;;;0.00;;
73107;SDS011;61559;50.476;15.588;2023-08-06T04:55:49;0.10;;;0.10;;
73107;SDS011;61559;50.476;15.588;2023-08-06T04:58:20;0.10;;;0.10;;
73107;SDS011;61559;50.476;15.588;2023-08-06T05:00:52;0.00;;;0.00;;
73107;SDS011;61559;50.476;15.588;2023-08-06T05:03:24;1.20;;;0.10;;
73107;SDS011;61559;50.476;15.588;2023-08-06T05:05:55;0.10;;;0.10;;
73107;SDS011;61559;50.476;15.588;2023-08-06T05:08:26;0.20;;;0.10;;
73107;SDS011;61559;50.476;15.588;2023-08-06T05:10:58;0.10;;;0.10;;
73107;SDS011;61559;50.476;15.588;2023-08-06T05:13:29;0.50;;;0.10;;
73107;SDS011;61559;50.476;15.588;2023-08-06T05:16:00;0.00;;;0.00;;
73107;SDS011;61559;50.476;15.588;2023-08-06T05:18:31;0.10;;;0.10;;
73107;SDS011;61559;50.476;15.588;2023-08-06T05:21:05;0.00;;;0.00;;
73107;SDS011;61559;50.476;15.588;2023-08-06T05:23:36;0.10;;;0.10;;
73107;SDS011;61559;50.476;15.588;2023-08-06T05:26:08;0.10;;;0.10;;
73107;SDS011;61559;50.476;15.588;2023-08-06T05:28:39;0.00;;;0.00;;
73107;SDS011;61559;50.476;15.588;2023-08-06T05:31:10;0.30;;;0.20;;
73107;SDS011;61559;50.476;15.588;2023-08-06T05:33:41;0.10;;;0.10;;
73107;SDS011;61559;50.476;15.588;2023-08-06T05:36:12;0.50;;;0.10;;
73107;SDS011;61559;50.476;15.588;2023-08-06T05:38:45;0.30;;;0.10;;
73107;SDS011;61559;50.476;15.588;2023-08-06T05:41:17;0.50;;;0.10;;
73107;SDS011;61559;50.476;15.588;2023-08-06T05:43:48;1.60;;;0.10;;
73107;SDS011;61559;50.476;15.588;2023-08-06T05:46:19;0.10;;;0.00;;
73107;SDS011;61559;50.476;15.588;2023-08-06T05:48:50;0.80;;;0.10;;
73107;SDS011;61559;50.476;15.588;2023-08-06T05:51:21;0.10;;;0.10;;
73107;SDS011;61559;50.476;15.588;2023-08-06T05:53:52;0.10;;;0.10;;
73107;SDS011;61559;50.476;15.588;2023-08-06T05:56:23;0.30;;;0.20;;
73107;SDS011;61559;50.476;15.588;2023-08-06T05:58:54;0.30;;;0.30;;
73107;SDS011;61559;50.476;15.588;2023-08-06T06:01:25;1.60;;;0.50;;
73107;SDS011;61559;50.476;15.588;2023-08-06T06:03:56;0.40;;;0.20;;
73107;SDS011;61559;50.476;15.588;2023-08-06T06:06:27;0.20;;;0.20;;
73107;SDS011;61559;50.476;15.588;2023-08-06T06:08:59;1.60;;;0.30;;
73107;SDS011;61559;50.476;15.588;2023-08-06T06:11:30;3.50;;;0.30;;
73107;SDS011;61559;50.476;15.588;2023-08-06T06:14:01;0.20;;;0.20;;
73107;SDS011;61559;50.476;15.588;2023-08-06T06:16:32;0.10;;;0.10;;
73107;SDS011;61559;50.476;15.588;2023-08-06T06:19:03;1.50;;;0.20;;
73107;SDS011;61559;50.476;15.588;2023-08-06T06:21:35;0.20;;;0.20;;
73107;SDS011;61559;50.476;15.588;2023-08-06T06:24:07;0.40;;;0.20;;
73107;SDS011;61559;50.476;15.588;2023-08-06T06:30:51;0.20;;;0.10;;
73107;SDS011;61559;50.476;15.588;2023-08-06T06:37:52;0.20;;;0.10;;
73107;SDS011;61559;50.476;15.588;2023-08-06T06:40:36;0.40;;;0.20;;
73107;SDS011;61559;50.476;15.588;2023-08-06T06:43:10;0.20;;;0.20;;
73107;SDS011;61559;50.476;15.588;2023-08-06T06:46:03;1.50;;;0.20;;
73107;SDS011;61559;50.476;15.588;2023-08-06T06:48:59;0.30;;;0.10;;
73107;SDS011;61559;50.476;15.588;2023-08-06T06:51:39;0.00;;;0.00;;
73107;SDS011;61559;50.476;15.588;2023-08-06T06:54:25;0.20;;;0.10;;
73107;SDS011;61559;50.476;15.588;2023-08-06T06:57:02;0.60;;;0.00;;
73107;SDS011;61559;50.476;15.588;2023-08-06T07:00:05;0.10;;;0.10;;
73107;SDS011;61559;50.476;15.588;2023-08-06T07:07:18;0.30;;;0.10;;
73107;SDS011;61559;50.476;15.588;2023-08-06T07:10:41;0.20;;;0.10;;
73107;SDS011;61559;50.476;15.588;2023-08-06T07:13:12;0.20;;;0.10;;
73107;SDS011;61559;50.476;15.588;2023-08-06T07:15:44;0.20;;;0.20;;
73107;SDS011;61559;50.476;15.588;2023-08-06T07:18:15;0.20;;;0.20;;
73107;SDS011;61559;50.476;15.588;2023-08-06T07:20:49;0.10;;;0.10;;
73107;SDS011;61559;50.476;15.588;2023-08-06T07:23:21;0.80;;;0.20;;
73107;SDS011;61559;50.476;15.588;2023-08-06T07:25:53;0.20;;;0.20;;
73107;SDS011;61559;50.476;15.588;2023-08-06T07:28:25;0.10;;;0.10;;
73107;SDS011;61559;50.476;15.588;2023-08-06T07:30:56;0.50;;;0.20;;
73107;SDS011;61559;50.476;15.588;2023-08-06T07:33:27;0.30;;;0.20;;
73107;SDS011;61559;50.476;15.588;2023-08-06T07:35:58;0.10;;;0.10;;
73107;SDS011;61559;50.476;15.588;2023-08-06T07:38:36;0.10;;;0.10;;
73107;SDS011;61559;50.476;15.588;2023-08-06T07:41:07;0.70;;;0.20;;
73107;SDS011;61559;50.476;15.588;2023-08-06T07:43:39;0.20;;;0.20;;
73107;SDS011;61559;50.476;15.588;2023-08-06T07:46:11;0.20;;;0.20;;
73107;SDS011;61559;50.476;15.588;2023-08-06T07:48:43;1.00;;;0.20;;
73107;SDS011;61559;50.476;15.588;2023-08-06T07:51:15;0.50;;;0.20;;
73107;SDS011;61559;50.476;15.588;2023-08-06T07:53:46;0.10;;;0.10;;
73107;SDS011;61559;50.476;15.588;2023-08-06T07:56:17;0.10;;;0.10;;
73107;SDS011;61559;50.476;15.588;2023-08-06T07:58:48;0.10;;;0.10;;
73107;SDS011;61559;50.476;15.588;2023-08-06T08:01:19;0.20;;;0.20;;
73107;SDS011;61559;50.476;15.588;2023-08-06T08:03:50;0.10;;;0.10;;
73107;SDS011;61559;50.476;15.588;2023-08-06T08:06:21;0.30;;;0.30;;
73107;SDS011;61559;50.476;15.588;2023-08-06T08:08:52;0.10;;;0.10;;
73107;SDS011;61559;50.476;15.588;2023-08-06T08:11:24;0.10;;;0.10;;
73107;SDS011;61559;50.476;15.588;2023-08-06T08:13:55;0.20;;;0.20;;
73107;SDS011;61559;50.476;15.588;2023-08-06T08:16:26;0.20;;;0.20;;
73107;SDS011;61559;50.476;15.588;2023-08-06T08:18:57;0.20;;;0.20;;
73107;SDS011;61559;50.476;15.588;2023-08-06T08:21:28;0.20;;;0.20;;
73107;SDS011;61559;50.476;15.588;2023-08-06T08:24:00;0.30;;;0.30;;
73107;SDS011;61559;50.476;15.588;2023-08-06T08:26:33;0.40;;;0.30;;
73107;SDS011;61559;50.476;15.588;2023-08-06T08:29:04;0.50;;;0.20;;
73107;SDS011;61559;50.476;15.588;2023-08-06T08:31:35;0.30;;;0.20;;
73107;SDS011;61559;50.476;15.588;2023-08-06T08:34:07;0.70;;;0.50;;
73107;SDS011;61559;50.476;15.588;2023-08-06T08:36:38;0.50;;;0.30;;
73107;SDS011;61559;50.476;15.588;2023-08-06T08:39:09;1.30;;;0.50;;
73107;SDS011;61559;50.476;15.588;2023-08-06T08:41:41;1.60;;;0.60;;
73107;SDS011;61559;50.476;15.588;2023-08-06T08:44:13;0.60;;;0.30;;
73107;SDS011;61559;50.476;15.588;2023-08-06T08:46:45;0.30;;;0.30;;
73107;SDS011;61559;50.476;15.588;2023-08-06T08:49:18;0.30;;;0.30;;
73107;SDS011;61559;50.476;15.588;2023-08-06T08:51:53;0.20;;;0.20;;
73107;SDS011;61559;50.476;15.588;2023-08-06T08:54:25;0.20;;;0.20;;
73107;SDS011;61559;50.476;15.588;2023-08-06T08:56:57;0.20;;;0.20;;
73107;SDS011;61559;50.476;15.588;2023-08-06T08:59:28;1.00;;;0.20;;
73107;SDS011;61559;50.476;15.588;2023-08-06T09:02:01;2.40;;;0.40;;
73107;SDS011;61559;50.476;15.588;2023-08-06T09:04:33;0.20;;;0.20;;
73107;SDS011;61559;50.476;15.588;2023-08-06T09:07:05;0.10;;;0.10;;
73107;SDS011;61559;50.476;15.588;2023-08-06T09:09:37;0.10;;;0.10;;
73107;SDS011;61559;50.476;15.588;2023-08-06T09:12:14;0.40;;;0.30;;
73107;SDS011;61559;50.476;15.588;2023-08-06T09:14:46;0.30;;;0.30;;
73107;SDS011;61559;50.476;15.588;2023-08-06T09:17:17;2.00;;;0.40;;
73107;SDS011;61559;50.476;15.588;2023-08-06T09:19:49;0.30;;;0.30;;
73107;SDS011;61559;50.476;15.588;2023-08-06T09:22:20;0.30;;;0.30;;
73107;SDS011;61559;50.476;15.588;2023-08-06T09:24:51;1.40;;;0.60;;
73107;SDS011;61559;50.476;15.588;2023-08-06T09:27:22;0.40;;;0.40;;
73107;SDS011;61559;50.476;15.588;2023-08-06T09:29:53;0.50;;;0.50;;
73107;SDS011;61559;50.476;15.588;2023-08-06T09:32:25;0.40;;;0.40;;
73107;SDS011;61559;50.476;15.588;2023-08-06T09:34:56;0.60;;;0.60;;
73107;SDS011;61559;50.476;15.588;2023-08-06T09:37:30;0.50;;;0.50;;
73107;SDS011;61559;50.476;15.588;2023-08-06T09:40:21;0.80;;;0.70;;
73107;SDS011;61559;50.476;15.588;2023-08-06T09:42:56;0.80;;;0.80;;
73107;SDS011;61559;50.476;15.588;2023-08-06T09:45:30;1.00;;;0.90;;
73107;SDS011;61559;50.476;15.588;2023-08-06T09:48:02;1.10;;;1.00;;
73107;SDS011;61559;50.476;15.588;2023-08-06T09:50:34;1.30;;;1.20;;
73107;SDS011;61559;50.476;15.588;2023-08-06T09:53:07;1.10;;;1.00;;
73107;SDS011;61559;50.476;15.588;2023-08-06T09:55:38;1.20;;;1.10;;
73107;SDS011;61559;50.476;15.588;2023-08-06T09:58:10;1.60;;;1.50;;
73107;SDS011;61559;50.476;15.588;2023-08-06T10:00:42;1.30;;;1.20;;
73107;SDS011;61559;50.476;15.588;2023-08-06T10:03:13;1.30;;;1.20;;
73107;SDS011;61559;50.476;15.588;2023-08-06T10:05:46;2.00;;;1.40;;
73107;SDS011;61559;50.476;15.588;2023-08-06T10:08:18;1.70;;;1.40;;
73107;SDS011;61559;50.476;15.588;2023-08-06T10:10:50;2.00;;;1.40;;
73107;SDS011;61559;50.476;15.588;2023-08-06T10:13:22;2.00;;;1.50;;
73107;SDS011;61559;50.476;15.588;2023-08-06T10:15:55;1.60;;;1.40;;
73107;SDS011;61559;50.476;15.588;2023-08-06T10:18:26;1.80;;;1.30;;
73107;SDS011;61559;50.476;15.588;2023-08-06T10:20:58;1.30;;;1.20;;
73107;SDS011;61559;50.476;15.588;2023-08-06T10:23:36;1.30;;;1.20;;
73107;SDS011;61559;50.476;15.588;2023-08-06T10:26:10;1.90;;;1.20;;
73107;SDS011;61559;50.476;15.588;2023-08-06T10:28:44;1.20;;;1.10;;
73107;SDS011;61559;50.476;15.588;2023-08-06T10:31:15;1.40;;;0.90;;
73107;SDS011;61559;50.476;15.588;2023-08-06T10:33:46;1.30;;;1.00;;
73107;SDS011;61559;50.476;15.588;2023-08-06T10:36:17;1.10;;;0.90;;
73107;SDS011;61559;50.476;15.588;2023-08-06T10:38:49;1.00;;;0.80;;
73107;SDS011;61559;50.476;15.588;2023-08-06T10:41:27;1.60;;;1.00;;
73107;SDS011;61559;50.476;15.588;2023-08-06T10:44:06;1.00;;;0.80;;
73107;SDS011;61559;50.476;15.588;2023-08-06T10:46:38;1.20;;;0.70;;
73107;SDS011;61559;50.476;15.588;2023-08-06T10:49:09;0.90;;;0.80;;
73107;SDS011;61559;50.476;15.588;2023-08-06T10:51:42;0.80;;;0.70;;
73107;SDS011;61559;50.476;15.588;2023-08-06T10:54:14;0.70;;;0.60;;
73107;SDS011;61559;50.476;15.588;2023-08-06T10:56:46;0.60;;;0.60;;
73107;SDS011;61559;50.476;15.588;2023-08-06T10:59:17;1.00;;;0.80;;
73107;SDS011;61559;50.476;15.588;2023-08-06T11:01:49;0.80;;;0.70;;
73107;SDS011;61559;50.476;15.588;2023-08-06T11:04:21;1.00;;;0.60;;
73107;SDS011;61559;50.476;15.588;2023-08-06T11:06:53;0.60;;;0.60;;
73107;SDS011;61559;50.476;15.588;2023-08-06T11:09:24;1.80;;;0.60;;
73107;SDS011;61559;50.476;15.588;2023-08-06T11:11:55;0.90;;;0.50;;
73107;SDS011;61559;50.476;15.588;2023-08-06T11:14:26;0.90;;;0.90;;
73107;SDS011;61559;50.476;15.588;2023-08-06T11:17:00;0.80;;;0.80;;
73107;SDS011;61559;50.476;15.588;2023-08-06T11:19:31;1.60;;;0.90;;
73107;SDS011;61559;50.476;15.588;2023-08-06T11:22:03;1.00;;;0.80;;
73107;SDS011;61559;50.476;15.588;2023-08-06T11:24:34;0.90;;;0.80;;
73107;SDS011;61559;50.476;15.588;2023-08-06T11:27:12;1.50;;;0.90;;
73107;SDS011;61559;50.476;15.588;2023-08-06T11:32:13;0.90;;;0.90;;
73107;SDS011;61559;50.476;15.588;2023-08-06T11:34:45;1.20;;;1.00;;
73107;SDS011;61559;50.476;15.588;2023-08-06T11:37:16;1.10;;;1.00;;
73107;SDS011;61559;50.476;15.588;2023-08-06T11:39:53;1.20;;;1.10;;
73107;SDS011;61559;50.476;15.588;2023-08-06T11:42:31;1.40;;;1.10;;
73107;SDS011;61559;50.476;15.588;2023-08-06T11:45:04;1.10;;;0.90;;
73107;SDS011;61559;50.476;15.588;2023-08-06T11:47:39;1.10;;;1.00;;
73107;SDS011;61559;50.476;15.588;2023-08-06T11:50:10;1.10;;;1.00;;
73107;SDS011;61559;50.476;15.588;2023-08-06T11:52:56;1.60;;;1.30;;
73107;SDS011;61559;50.476;15.588;2023-08-06T11:55:29;1.30;;;1.20;;
73107;SDS011;61559;50.476;15.588;2023-08-06T11:58:00;2.10;;;1.40;;
73107;SDS011;61559;50.476;15.588;2023-08-06T12:00:33;1.60;;;1.50;;
73107;SDS011;61559;50.476;15.588;2023-08-06T12:03:05;1.60;;;1.40;;
73107;SDS011;61559;50.476;15.588;2023-08-06T12:05:37;1.20;;;1.10;;
73107;SDS011;61559;50.476;15.588;2023-08-06T12:08:08;2.10;;;1.40;;
73107;SDS011;61559;50.476;15.588;2023-08-06T12:10:40;6.20;;;1.90;;
73107;SDS011;61559;50.476;15.588;2023-08-06T12:13:11;1.80;;;1.60;;
73107;SDS011;61559;50.476;15.588;2023-08-06T12:15:42;1.70;;;1.50;;
73107;SDS011;61559;50.476;15.588;2023-08-06T12:18:13;2.10;;;1.80;;
73107;SDS011;61559;50.476;15.588;2023-08-06T12:20:44;2.10;;;1.80;;
73107;SDS011;61559;50.476;15.588;2023-08-06T12:23:16;2.20;;;1.90;;
73107;SDS011;61559;50.476;15.588;2023-08-06T12:25:47;4.30;;;3.50;;
73107;SDS011;61559;50.476;15.588;2023-08-06T12:28:18;2.50;;;2.10;;
73107;SDS011;61559;50.476;15.588;2023-08-06T12:30:51;2.70;;;2.20;;
73107;SDS011;61559;50.476;15.588;2023-08-06T12:33:24;3.30;;;3.00;;
73107;SDS011;61559;50.476;15.588;2023-08-06T12:35:55;2.50;;;2.30;;
73107;SDS011;61559;50.476;15.588;2023-08-06T12:38:26;3.50;;;2.50;;
73107;SDS011;61559;50.476;15.588;2023-08-06T12:41:01;2.20;;;1.90;;
73107;SDS011;61559;50.476;15.588;2023-08-06T12:43:33;2.20;;;2.00;;
73107;SDS011;61559;50.476;15.588;2023-08-06T12:46:04;2.60;;;2.40;;
73107;SDS011;61559;50.476;15.588;2023-08-06T12:48:35;2.10;;;1.90;;
73107;SDS011;61559;50.476;15.588;2023-08-06T12:51:06;2.60;;;1.80;;
73107;SDS011;61559;50.476;15.588;2023-08-06T12:53:37;4.00;;;3.10;;
73107;SDS011;61559;50.476;15.588;2023-08-06T12:56:08;2.50;;;2.30;;
73107;SDS011;61559;50.476;15.588;2023-08-06T12:58:39;7.10;;;3.90;;
73107;SDS011;61559;50.476;15.588;2023-08-06T13:01:10;1.80;;;1.50;;
73107;SDS011;61559;50.476;15.588;2023-08-06T13:03:41;6.50;;;5.20;;
73107;SDS011;61559;50.476;15.588;2023-08-06T13:06:13;2.90;;;2.30;;
73107;SDS011;61559;50.476;15.588;2023-08-06T13:08:44;6.00;;;3.80;;
73107;SDS011;61559;50.476;15.588;2023-08-06T13:11:15;2.90;;;1.90;;
73107;SDS011;61559;50.476;15.588;2023-08-06T13:13:50;1.80;;;1.60;;
73107;SDS011;61559;50.476;15.588;2023-08-06T13:16:21;2.00;;;1.70;;
73107;SDS011;61559;50.476;15.588;2023-08-06T13:18:52;1.50;;;1.40;;
73107;SDS011;61559;50.476;15.588;2023-08-06T13:21:24;2.10;;;1.90;;
73107;SDS011;61559;50.476;15.588;2023-08-06T13:24:00;1.70;;;1.60;;
73107;SDS011;61559;50.476;15.588;2023-08-06T13:26:31;4.60;;;3.50;;
73107;SDS011;61559;50.476;15.588;2023-08-06T13:29:03;1.70;;;1.50;;
73107;SDS011;61559;50.476;15.588;2023-08-06T13:31:35;2.00;;;1.80;;
73107;SDS011;61559;50.476;15.588;2023-08-06T13:34:06;2.00;;;1.80;;
73107;SDS011;61559;50.476;15.588;2023-08-06T13:36:37;3.50;;;3.20;;
73107;SDS011;61559;50.476;15.588;2023-08-06T13:39:09;4.10;;;3.20;;
73107;SDS011;61559;50.476;15.588;2023-08-06T13:41:40;6.00;;;4.20;;
73107;SDS011;61559;50.476;15.588;2023-08-06T13:44:11;7.60;;;4.20;;
73107;SDS011;61559;50.476;15.588;2023-08-06T13:46:42;8.10;;;5.00;;
73107;SDS011;61559;50.476;15.588;2023-08-06T13:49:13;2.70;;;2.00;;
73107;SDS011;61559;50.476;15.588;2023-08-06T13:51:45;3.50;;;2.80;;
73107;SDS011;61559;50.476;15.588;2023-08-06T13:54:16;4.70;;;3.70;;
73107;SDS011;61559;50.476;15.588;2023-08-06T13:56:48;12.30;;;7.80;;
73107;SDS011;61559;50.476;15.588;2023-08-06T13:59:21;13.60;;;8.90;;
73107;SDS011;61559;50.476;15.588;2023-08-06T14:01:53;10.80;;;6.80;;
73107;SDS011;61559;50.476;15.588;2023-08-06T14:04:27;2.80;;;2.30;;
73107;SDS011;61559;50.476;15.588;2023-08-06T14:06:58;2.90;;;2.20;;
73107;SDS011;61559;50.476;15.588;2023-08-06T14:09:30;6.10;;;3.60;;
73107;SDS011;61559;50.476;15.588;2023-08-06T14:12:02;7.60;;;4.60;;
73107;SDS011;61559;50.476;15.588;2023-08-06T14:14:34;6.10;;;3.90;;
73107;SDS011;61559;50.476;15.588;2023-08-06T14:17:05;2.50;;;2.20;;
73107;SDS011;61559;50.476;15.588;2023-08-06T14:19:36;2.80;;;2.40;;
73107;SDS011;61559;50.476;15.588;2023-08-06T14:22:07;2.70;;;2.40;;
73107;SDS011;61559;50.476;15.588;2023-08-06T14:24:38;15.60;;;9.40;;
73107;SDS011;61559;50.476;15.588;2023-08-06T14:27:10;6.20;;;4.40;;
73107;SDS011;61559;50.476;15.588;2023-08-06T14:29:41;24.60;;;13.10;;
73107;SDS011;61559;50.476;15.588;2023-08-06T14:32:12;4.80;;;3.40;;
73107;SDS011;61559;50.476;15.588;2023-08-06T14:34:46;3.90;;;2.80;;
73107;SDS011;61559;50.476;15.588;2023-08-06T14:37:17;3.80;;;2.80;;
73107;SDS011;61559;50.476;15.588;2023-08-06T14:39:51;2.60;;;2.10;;
73107;SDS011;61559;50.476;15.588;2023-08-06T14:42:22;3.30;;;2.40;;
73107;SDS011;61559;50.476;15.588;2023-08-06T14:44:53;3.20;;;2.10;;
73107;SDS011;61559;50.476;15.588;2023-08-06T14:47:24;3.00;;;2.00;;
73107;SDS011;61559;50.476;15.588;2023-08-06T14:49:55;3.20;;;2.20;;
73107;SDS011;61559;50.476;15.588;2023-08-06T14:52:26;3.80;;;2.20;;
73107;SDS011;61559;50.476;15.588;2023-08-06T14:54:57;4.80;;;2.80;;
73107;SDS011;61559;50.476;15.588;2023-08-06T14:57:30;2.50;;;2.10;;
73107;SDS011;61559;50.476;15.588;2023-08-06T15:00:02;3.30;;;1.90;;
73107;SDS011;61559;50.476;15.588;2023-08-06T15:02:34;2.00;;;1.70;;
73107;SDS011;61559;50.476;15.588;2023-08-06T15:05:06;7.70;;;2.50;;
73107;SDS011;61559;50.476;15.588;2023-08-06T15:07:37;3.20;;;2.90;;
73107;SDS011;61559;50.476;15.588;2023-08-06T15:10:09;3.20;;;2.30;;
73107;SDS011;61559;50.476;15.588;2023-08-06T15:12:54;2.70;;;2.20;;
73107;SDS011;61559;50.476;15.588;2023-08-06T15:15:26;2.60;;;2.20;;
73107;SDS011;61559;50.476;15.588;2023-08-06T15:17:57;2.80;;;2.50;;
73107;SDS011;61559;50.476;15.588;2023-08-06T15:20:29;2.20;;;2.00;;